SHT4YL EGLL-EGAC
Flight info
| Callsign | SHT4YL |
|---|---|
| Flight time | 0h 56m |
| Altitude | 32000 |
| Route | N0430F320 UMLAT1F UMLAT T418 WELIN T420 TNT UL28 RODOL UM65 TENSO L603 BELOX DCT REMSI DCT NINEB/N0411F240 M148 MAGEE DCT |
| Aircraft | A320/M-SDE3FGHIJ1KRWXY/SB1 |
Departure
| Time | 2026-05-04 18:50 |
|---|---|
| Airport | London Heathrow Airport (EGLL) |
Arrival
| Time | 2026-05-04 19:46 |
|---|---|
| Airport | George Best Belfast City Airport (EGAC) |
| Time | Latitude | Longitude | Altitude | Speed | Heading |
|---|---|---|---|---|---|
| 2026-05-04 17:47 | 51.46930 | -0.48789 | 87 ft | 0 kts | 1° |
| 2026-05-04 18:23 | 51.46926 | -0.48789 | 87 ft | 3 kts | 1° |
| 2026-05-04 18:23 | 51.46899 | -0.48793 | 87 ft | 4 kts | 15° |
| 2026-05-04 18:23 | 51.46878 | -0.48811 | 92 ft | 4 kts | 71° |
| 2026-05-04 18:24 | 51.46876 | -0.48841 | 87 ft | 1 kts | 90° |
| 2026-05-04 18:38 | 51.46876 | -0.48837 | 87 ft | 1 kts | 90° |
| 2026-05-04 18:38 | 51.46876 | -0.48806 | 87 ft | 4 kts | 90° |
| 2026-05-04 18:38 | 51.46859 | -0.48756 | 90 ft | 6 kts | 150° |
| 2026-05-04 18:39 | 51.46815 | -0.48752 | 87 ft | 6 kts | 181° |
| 2026-05-04 18:39 | 51.46812 | -0.48752 | 87 ft | 0 kts | 180° |
| 2026-05-04 18:40 | 51.46809 | -0.48752 | 87 ft | 1 kts | 180° |
| 2026-05-04 18:40 | 51.46790 | -0.48753 | 87 ft | 4 kts | 180° |
| 2026-05-04 18:41 | 51.46751 | -0.48753 | 87 ft | 7 kts | 180° |
| 2026-05-04 18:41 | 51.46696 | -0.48752 | 90 ft | 9 kts | 179° |
| 2026-05-04 18:41 | 51.46626 | -0.48755 | 90 ft | 9 kts | 190° |
| 2026-05-04 18:41 | 51.46603 | -0.48768 | 90 ft | 0 kts | 202° |
| 2026-05-04 18:48 | 51.46598 | -0.48772 | 90 ft | 2 kts | 202° |
| 2026-05-04 18:48 | 51.46584 | -0.48780 | 88 ft | 4 kts | 201° |
| 2026-05-04 18:48 | 51.46549 | -0.48795 | 88 ft | 6 kts | 187° |
| 2026-05-04 18:48 | 51.46501 | -0.48772 | 91 ft | 8 kts | 144° |
| 2026-05-04 18:49 | 51.46478 | -0.48683 | 88 ft | 11 kts | 94° |
| 2026-05-04 18:49 | 51.46473 | -0.48345 | 92 ft | 58 kts | 88° |
| 2026-05-04 18:49 | 51.46482 | -0.47333 | 87 ft | 120 kts | 90° |
| 2026-05-04 18:49 | 51.46491 | -0.45757 | 279 ft | 145 kts | 88° |
| 2026-05-04 18:50 | 51.46512 | -0.44156 | 909 ft | 145 kts | 86° |
| 2026-05-04 18:50 | 51.46546 | -0.42509 | 1404 ft | 155 kts | 84° |
| 2026-05-04 18:50 | 51.46851 | -0.40767 | 1744 ft | 172 kts | 59° |
| 2026-05-04 18:50 | 51.47646 | -0.39149 | 1967 ft | 200 kts | 50° |
| 2026-05-04 18:51 | 51.48608 | -0.37326 | 2356 ft | 226 kts | 50° |
| 2026-05-04 18:51 | 51.49672 | -0.35305 | 2925 ft | 247 kts | 51° |
| 2026-05-04 18:51 | 51.50796 | -0.33151 | 3777 ft | 256 kts | 51° |
| 2026-05-04 18:51 | 51.51955 | -0.30889 | 4623 ft | 267 kts | 54° |
| 2026-05-04 18:52 | 51.52778 | -0.28181 | 5461 ft | 275 kts | 72° |
| 2026-05-04 18:52 | 51.53480 | -0.25317 | 6137 ft | 282 kts | 58° |
| 2026-05-04 18:52 | 51.54926 | -0.23315 | 6067 ft | 274 kts | 19° |
| 2026-05-04 18:52 | 51.56806 | -0.23174 | 6090 ft | 272 kts | 343° |
| 2026-05-04 18:53 | 51.58501 | -0.24480 | 5924 ft | 269 kts | 330° |
| 2026-05-04 18:53 | 51.60077 | -0.25987 | 6035 ft | 268 kts | 329° |
| 2026-05-04 18:53 | 51.61741 | -0.27444 | 6031 ft | 269 kts | 331° |
| 2026-05-04 18:53 | 51.63404 | -0.28816 | 6035 ft | 269 kts | 332° |
| 2026-05-04 18:54 | 51.65073 | -0.30182 | 6033 ft | 269 kts | 332° |
| 2026-05-04 18:54 | 51.66736 | -0.31557 | 6039 ft | 269 kts | 331° |
| 2026-05-04 18:54 | 51.68393 | -0.32950 | 6045 ft | 268 kts | 331° |
| 2026-05-04 18:54 | 51.70045 | -0.34354 | 6034 ft | 268 kts | 331° |
| 2026-05-04 18:55 | 51.71699 | -0.35768 | 6155 ft | 271 kts | 330° |
| 2026-05-04 18:55 | 51.75047 | -0.38641 | 7762 ft | 276 kts | 330° |
| 2026-05-04 18:55 | 51.76748 | -0.40104 | 7983 ft | 277 kts | 330° |
| 2026-05-04 18:56 | 51.78448 | -0.41568 | 8019 ft | 277 kts | 330° |
| 2026-05-04 18:56 | 51.80145 | -0.43033 | 8026 ft | 277 kts | 330° |
| 2026-05-04 18:56 | 51.81841 | -0.44498 | 8028 ft | 276 kts | 330° |
| 2026-05-04 18:56 | 51.83537 | -0.45963 | 8030 ft | 276 kts | 330° |
| 2026-05-04 18:57 | 51.85236 | -0.47429 | 8031 ft | 276 kts | 330° |
| 2026-05-04 18:57 | 51.86930 | -0.48896 | 8031 ft | 276 kts | 329° |
| 2026-05-04 18:57 | 51.88601 | -0.50347 | 8028 ft | 276 kts | 330° |
| 2026-05-04 18:57 | 51.90316 | -0.51834 | 8031 ft | 276 kts | 330° |
| 2026-05-04 18:58 | 51.91989 | -0.53282 | 8032 ft | 276 kts | 330° |
| 2026-05-04 18:58 | 51.93684 | -0.54752 | 8032 ft | 276 kts | 330° |
| 2026-05-04 18:58 | 51.95389 | -0.56283 | 8032 ft | 276 kts | 328° |
| 2026-05-04 18:58 | 51.97020 | -0.57852 | 8033 ft | 276 kts | 327° |
| 2026-05-04 18:59 | 51.98661 | -0.59475 | 8034 ft | 276 kts | 326° |
| 2026-05-04 18:59 | 52.00299 | -0.61106 | 8035 ft | 276 kts | 326° |
| 2026-05-04 18:59 | 52.01938 | -0.62735 | 8037 ft | 276 kts | 327° |
| 2026-05-04 18:59 | 52.03579 | -0.64359 | 8036 ft | 277 kts | 327° |
| 2026-05-04 19:00 | 52.05224 | -0.65983 | 8038 ft | 277 kts | 327° |
| 2026-05-04 19:00 | 52.06870 | -0.67602 | 8038 ft | 277 kts | 327° |
| 2026-05-04 19:00 | 52.08516 | -0.69219 | 8041 ft | 277 kts | 327° |
| 2026-05-04 19:00 | 52.10182 | -0.70859 | 8455 ft | 282 kts | 327° |
| 2026-05-04 19:01 | 52.11863 | -0.72515 | 9447 ft | 283 kts | 327° |
| 2026-05-04 19:01 | 52.13561 | -0.74189 | 10249 ft | 290 kts | 327° |
| 2026-05-04 19:01 | 52.15356 | -0.75964 | 10525 ft | 314 kts | 327° |
| 2026-05-04 19:01 | 52.17283 | -0.77870 | 10861 ft | 332 kts | 327° |
| 2026-05-04 19:02 | 52.19280 | -0.79842 | 11513 ft | 338 kts | 327° |
| 2026-05-04 19:02 | 52.21306 | -0.81843 | 12244 ft | 342 kts | 327° |
| 2026-05-04 19:02 | 52.23355 | -0.83867 | 12980 ft | 346 kts | 327° |
| 2026-05-04 19:02 | 52.25421 | -0.85912 | 13743 ft | 349 kts | 327° |
| 2026-05-04 19:03 | 52.27514 | -0.87988 | 14407 ft | 353 kts | 327° |
| 2026-05-04 19:03 | 52.29622 | -0.90089 | 15034 ft | 357 kts | 327° |
| 2026-05-04 19:03 | 52.31757 | -0.92218 | 15648 ft | 362 kts | 327° |
| 2026-05-04 19:03 | 52.33921 | -0.94370 | 16260 ft | 366 kts | 327° |
| 2026-05-04 19:04 | 52.36108 | -0.96545 | 16872 ft | 370 kts | 327° |
| 2026-05-04 19:04 | 52.38314 | -0.98742 | 17497 ft | 374 kts | 327° |
| 2026-05-04 19:04 | 52.40548 | -1.00972 | 18133 ft | 378 kts | 327° |
| 2026-05-04 19:04 | 52.42801 | -1.03225 | 18691 ft | 382 kts | 326° |
| 2026-05-04 19:05 | 52.45081 | -1.05515 | 19277 ft | 385 kts | 326° |
| 2026-05-04 19:05 | 52.47371 | -1.07818 | 19889 ft | 388 kts | 326° |
| 2026-05-04 19:05 | 52.49686 | -1.10146 | 20488 ft | 391 kts | 326° |
| 2026-05-04 19:05 | 52.52014 | -1.12490 | 21076 ft | 394 kts | 325° |
| 2026-05-04 19:06 | 52.54362 | -1.14855 | 21668 ft | 397 kts | 325° |
| 2026-05-04 19:06 | 52.56725 | -1.17241 | 22233 ft | 400 kts | 324° |
| 2026-05-04 19:06 | 52.59104 | -1.19645 | 22801 ft | 403 kts | 324° |
| 2026-05-04 19:06 | 52.61499 | -1.22064 | 23349 ft | 406 kts | 324° |
| 2026-05-04 19:07 | 52.63913 | -1.24504 | 23841 ft | 409 kts | 324° |
| 2026-05-04 19:07 | 52.66339 | -1.26961 | 24284 ft | 411 kts | 324° |
| 2026-05-04 19:07 | 52.68787 | -1.29442 | 24727 ft | 414 kts | 325° |
| 2026-05-04 19:07 | 52.71250 | -1.31939 | 25182 ft | 417 kts | 326° |
| 2026-05-04 19:08 | 52.73730 | -1.34457 | 25625 ft | 420 kts | 326° |
| 2026-05-04 19:08 | 52.76221 | -1.36991 | 26033 ft | 422 kts | 326° |
| 2026-05-04 19:08 | 52.78729 | -1.39548 | 26430 ft | 425 kts | 327° |
| 2026-05-04 19:08 | 52.81259 | -1.42134 | 26826 ft | 428 kts | 327° |
| 2026-05-04 19:09 | 52.83763 | -1.44698 | 27213 ft | 431 kts | 327° |
| 2026-05-04 19:09 | 52.86316 | -1.47316 | 27604 ft | 433 kts | 328° |
| 2026-05-04 19:09 | 52.88888 | -1.49962 | 27985 ft | 436 kts | 328° |
| 2026-05-04 19:09 | 52.91472 | -1.52619 | 28374 ft | 439 kts | 328° |
| 2026-05-04 19:10 | 52.94079 | -1.55299 | 28755 ft | 441 kts | 329° |
| 2026-05-04 19:10 | 52.96692 | -1.57987 | 29123 ft | 444 kts | 329° |
| 2026-05-04 19:10 | 52.99323 | -1.60700 | 29491 ft | 446 kts | 329° |
| 2026-05-04 19:10 | 53.01964 | -1.63431 | 29854 ft | 449 kts | 330° |
| 2026-05-04 19:11 | 53.04628 | -1.66190 | 30190 ft | 452 kts | 330° |
| 2026-05-04 19:11 | 53.07299 | -1.68963 | 30493 ft | 454 kts | 330° |
| 2026-05-04 19:11 | 53.09955 | -1.71835 | 30792 ft | 458 kts | 324° |
| 2026-05-04 19:11 | 53.12222 | -1.75581 | 31185 ft | 461 kts | 309° |
| 2026-05-04 19:12 | 53.14089 | -1.79911 | 31611 ft | 461 kts | 307° |
| 2026-05-04 19:12 | 53.17759 | -1.88640 | 32049 ft | 455 kts | 307° |
| 2026-05-04 19:13 | 53.21333 | -1.97215 | 32053 ft | 448 kts | 307° |
| 2026-05-04 19:13 | 53.24891 | -2.05740 | 32056 ft | 446 kts | 307° |
| 2026-05-04 19:14 | 53.28412 | -2.14201 | 32056 ft | 446 kts | 307° |
| 2026-05-04 19:14 | 53.31949 | -2.22717 | 32058 ft | 445 kts | 307° |
| 2026-05-04 19:15 | 53.35470 | -2.31248 | 32056 ft | 445 kts | 307° |
| 2026-05-04 19:15 | 53.38984 | -2.39794 | 32061 ft | 445 kts | 307° |
| 2026-05-04 19:16 | 53.42488 | -2.48346 | 32068 ft | 445 kts | 307° |
| 2026-05-04 19:16 | 53.45988 | -2.56897 | 32069 ft | 444 kts | 307° |
| 2026-05-04 19:17 | 53.49476 | -2.65459 | 32088 ft | 444 kts | 306° |
| 2026-05-04 19:17 | 53.52954 | -2.74019 | 32088 ft | 443 kts | 306° |
| 2026-05-04 19:18 | 53.56424 | -2.82581 | 32086 ft | 442 kts | 306° |
| 2026-05-04 19:18 | 53.59878 | -2.91143 | 32092 ft | 442 kts | 306° |
| 2026-05-04 19:19 | 53.63319 | -2.99704 | 32097 ft | 441 kts | 306° |
| 2026-05-04 19:19 | 53.66752 | -3.08268 | 32096 ft | 440 kts | 306° |
| 2026-05-04 19:20 | 53.70172 | -3.16825 | 32098 ft | 440 kts | 306° |
| 2026-05-04 19:20 | 53.73579 | -3.25384 | 32101 ft | 439 kts | 306° |
| 2026-05-04 19:21 | 53.76976 | -3.33935 | 32097 ft | 438 kts | 306° |
| 2026-05-04 19:21 | 53.80357 | -3.42496 | 32092 ft | 437 kts | 305° |
| 2026-05-04 19:22 | 53.83725 | -3.51047 | 32091 ft | 436 kts | 305° |
| 2026-05-04 19:22 | 53.87078 | -3.59586 | 32088 ft | 435 kts | 305° |
| 2026-05-04 19:23 | 53.90426 | -3.68136 | 32087 ft | 435 kts | 305° |
| 2026-05-04 19:23 | 53.93734 | -3.76638 | 32094 ft | 434 kts | 305° |
| 2026-05-04 19:24 | 53.97015 | -3.85224 | 32097 ft | 433 kts | 303° |
| 2026-05-04 19:24 | 54.00058 | -3.94071 | 32098 ft | 433 kts | 301° |
| 2026-05-04 19:25 | 54.02985 | -4.03026 | 32096 ft | 432 kts | 300° |
| 2026-05-04 19:25 | 54.05929 | -4.11940 | 32097 ft | 431 kts | 302° |
| 2026-05-04 19:25 | 54.07601 | -4.16167 | 31929 ft | 430 kts | 306° |
| 2026-05-04 19:26 | 54.09329 | -4.20315 | 31672 ft | 429 kts | 306° |
| 2026-05-04 19:26 | 54.11060 | -4.24467 | 31421 ft | 429 kts | 306° |
| 2026-05-04 19:26 | 54.12784 | -4.28623 | 31164 ft | 429 kts | 306° |
| 2026-05-04 19:26 | 54.14503 | -4.32783 | 30900 ft | 428 kts | 306° |
| 2026-05-04 19:27 | 54.16206 | -4.36913 | 30392 ft | 424 kts | 306° |
| 2026-05-04 19:27 | 54.17896 | -4.41012 | 29802 ft | 420 kts | 306° |
| 2026-05-04 19:27 | 54.19569 | -4.45075 | 29205 ft | 416 kts | 306° |
| 2026-05-04 19:27 | 54.21224 | -4.49101 | 28630 ft | 412 kts | 306° |
| 2026-05-04 19:28 | 54.22310 | -4.51749 | 28252 ft | 410 kts | 306° |
| 2026-05-04 19:28 | 54.23938 | -4.55727 | 27693 ft | 406 kts | 305° |
| 2026-05-04 19:28 | 54.25547 | -4.59665 | 27152 ft | 403 kts | 305° |
| 2026-05-04 19:28 | 54.27142 | -4.63585 | 26626 ft | 400 kts | 305° |
| 2026-05-04 19:29 | 54.28724 | -4.67478 | 26111 ft | 397 kts | 305° |
| 2026-05-04 19:29 | 54.30294 | -4.71344 | 25619 ft | 394 kts | 305° |
| 2026-05-04 19:29 | 54.31850 | -4.75184 | 25144 ft | 391 kts | 305° |
| 2026-05-04 19:29 | 54.33395 | -4.79004 | 24689 ft | 389 kts | 304° |
| 2026-05-04 19:30 | 54.34933 | -4.82803 | 24246 ft | 387 kts | 304° |
| 2026-05-04 19:30 | 54.36460 | -4.86579 | 23834 ft | 384 kts | 304° |
| 2026-05-04 19:30 | 54.37982 | -4.90347 | 23368 ft | 382 kts | 304° |
| 2026-05-04 19:30 | 54.39491 | -4.94085 | 22900 ft | 380 kts | 304° |
| 2026-05-04 19:31 | 54.40985 | -4.97802 | 22434 ft | 377 kts | 304° |
| 2026-05-04 19:31 | 54.42466 | -5.01499 | 21967 ft | 374 kts | 304° |
| 2026-05-04 19:31 | 54.43935 | -5.05173 | 21509 ft | 371 kts | 304° |
| 2026-05-04 19:31 | 54.45396 | -5.08814 | 21038 ft | 369 kts | 304° |
| 2026-05-04 19:32 | 54.46856 | -5.12421 | 20576 ft | 366 kts | 304° |
| 2026-05-04 19:32 | 54.48310 | -5.15995 | 20101 ft | 363 kts | 304° |
| 2026-05-04 19:32 | 54.49755 | -5.19539 | 19639 ft | 361 kts | 306° |
| 2026-05-04 19:32 | 54.51404 | -5.22773 | 19164 ft | 358 kts | 316° |
| 2026-05-04 19:33 | 54.53324 | -5.25492 | 18692 ft | 356 kts | 321° |
| 2026-05-04 19:33 | 54.55243 | -5.28081 | 18220 ft | 354 kts | 321° |
| 2026-05-04 19:33 | 54.57197 | -5.30732 | 17693 ft | 351 kts | 321° |
| 2026-05-04 19:33 | 54.59107 | -5.33334 | 17184 ft | 349 kts | 321° |
| 2026-05-04 19:34 | 54.61003 | -5.35921 | 16699 ft | 346 kts | 321° |
| 2026-05-04 19:34 | 54.62882 | -5.38486 | 16196 ft | 343 kts | 321° |
| 2026-05-04 19:34 | 54.64748 | -5.41032 | 15731 ft | 341 kts | 321° |
| 2026-05-04 19:34 | 54.66600 | -5.43566 | 15247 ft | 338 kts | 320° |
| 2026-05-04 19:35 | 54.68425 | -5.46067 | 14531 ft | 333 kts | 320° |
| 2026-05-04 19:35 | 54.70230 | -5.48542 | 13739 ft | 330 kts | 320° |
| 2026-05-04 19:35 | 54.72014 | -5.50991 | 12904 ft | 326 kts | 320° |
| 2026-05-04 19:35 | 54.73662 | -5.53617 | 12124 ft | 319 kts | 306° |
| 2026-05-04 19:36 | 54.74612 | -5.57004 | 11388 ft | 312 kts | 283° |
| 2026-05-04 19:36 | 54.74670 | -5.60705 | 10653 ft | 309 kts | 259° |
| 2026-05-04 19:36 | 54.73802 | -5.64026 | 10263 ft | 297 kts | 232° |
| 2026-05-04 19:36 | 54.72257 | -5.66238 | 9977 ft | 287 kts | 208° |
| 2026-05-04 19:37 | 54.70353 | -5.67169 | 9405 ft | 286 kts | 191° |
| 2026-05-04 19:37 | 54.68387 | -5.67619 | 8793 ft | 284 kts | 189° |
| 2026-05-04 19:37 | 54.66418 | -5.68019 | 8379 ft | 284 kts | 189° |
| 2026-05-04 19:37 | 54.64460 | -5.68410 | 8051 ft | 282 kts | 189° |
| 2026-05-04 19:38 | 54.62514 | -5.68796 | 7722 ft | 281 kts | 189° |
| 2026-05-04 19:38 | 54.60636 | -5.69567 | 7393 ft | 276 kts | 205° |
| 2026-05-04 19:38 | 54.58903 | -5.70954 | 7049 ft | 273 kts | 208° |
| 2026-05-04 19:38 | 54.57201 | -5.72398 | 6626 ft | 272 kts | 209° |
| 2026-05-04 19:39 | 54.55505 | -5.73844 | 6176 ft | 271 kts | 209° |
| 2026-05-04 19:39 | 54.53818 | -5.75280 | 5728 ft | 269 kts | 209° |
| 2026-05-04 19:39 | 54.52142 | -5.76705 | 5291 ft | 268 kts | 209° |
| 2026-05-04 19:39 | 54.50474 | -5.78114 | 4908 ft | 267 kts | 209° |
| 2026-05-04 19:40 | 54.48830 | -5.79498 | 4587 ft | 265 kts | 209° |
| 2026-05-04 19:40 | 54.47179 | -5.80891 | 4325 ft | 262 kts | 209° |
| 2026-05-04 19:40 | 54.45569 | -5.82251 | 4191 ft | 253 kts | 208° |
| 2026-05-04 19:40 | 54.44149 | -5.83818 | 4050 ft | 233 kts | 231° |
| 2026-05-04 19:41 | 54.43453 | -5.86131 | 3923 ft | 210 kts | 265° |
| 2026-05-04 19:41 | 54.43653 | -5.88468 | 3748 ft | 193 kts | 299° |
| 2026-05-04 19:41 | 54.44359 | -5.90333 | 3602 ft | 181 kts | 307° |
| 2026-05-04 19:41 | 54.45112 | -5.92018 | 3336 ft | 177 kts | 308° |
| 2026-05-04 19:42 | 54.45869 | -5.93677 | 3030 ft | 177 kts | 309° |
| 2026-05-04 19:42 | 54.46625 | -5.95333 | 2818 ft | 175 kts | 309° |
| 2026-05-04 19:42 | 54.47385 | -5.97001 | 2644 ft | 177 kts | 309° |
| 2026-05-04 19:42 | 54.48258 | -5.98451 | 2452 ft | 176 kts | 334° |
| 2026-05-04 19:43 | 54.49460 | -5.98713 | 2313 ft | 178 kts | 4° |
| 2026-05-04 19:43 | 54.50686 | -5.98409 | 2182 ft | 178 kts | 8° |
| 2026-05-04 19:43 | 54.51909 | -5.98026 | 2091 ft | 178 kts | 9° |
| 2026-05-04 19:43 | 54.53110 | -5.97550 | 1948 ft | 176 kts | 22° |
| 2026-05-04 19:44 | 54.54109 | -5.96445 | 1752 ft | 163 kts | 32° |
| 2026-05-04 19:44 | 54.55002 | -5.95376 | 1558 ft | 148 kts | 31° |
| 2026-05-04 19:44 | 54.55816 | -5.94404 | 1357 ft | 138 kts | 32° |
| 2026-05-04 19:44 | 54.56594 | -5.93478 | 1161 ft | 135 kts | 32° |
| 2026-05-04 19:45 | 54.57361 | -5.92568 | 967 ft | 133 kts | 33° |
| 2026-05-04 19:45 | 54.58123 | -5.91662 | 795 ft | 133 kts | 32° |
| 2026-05-04 19:45 | 54.58883 | -5.90754 | 617 ft | 133 kts | 35° |
| 2026-05-04 19:45 | 54.59637 | -5.89829 | 423 ft | 133 kts | 33° |
| 2026-05-04 19:46 | 54.60404 | -5.88934 | 264 ft | 134 kts | 33° |
| 2026-05-04 19:46 | 54.61162 | -5.88016 | 63 ft | 133 kts | 32° |
| 2026-05-04 19:46 | 54.61842 | -5.87213 | 23 ft | 87 kts | 35° |
| 2026-05-04 19:46 | 54.62106 | -5.86907 | 20 ft | 24 kts | 26° |
| 2026-05-04 19:47 | 54.62133 | -5.86861 | 22 ft | 7 kts | 206° |
| 2026-05-04 19:47 | 54.62072 | -5.86936 | 21 ft | 15 kts | 215° |
| 2026-05-04 19:47 | 54.61978 | -5.87053 | 20 ft | 19 kts | 217° |
| 2026-05-04 19:47 | 54.61872 | -5.87175 | 23 ft | 15 kts | 199° |
| 2026-05-04 19:48 | 54.61791 | -5.87073 | 21 ft | 13 kts | 124° |
| 2026-05-04 19:48 | 54.61737 | -5.86990 | 18 ft | 13 kts | 178° |
| 2026-05-04 19:48 | 54.61644 | -5.87089 | 17 ft | 17 kts | 214° |
| 2026-05-04 19:48 | 54.61554 | -5.87197 | 17 ft | 12 kts | 215° |
| 2026-05-04 19:49 | 54.61495 | -5.87214 | 17 ft | 5 kts | 157° |
| 2026-05-04 19:49 | 54.61467 | -5.87192 | 18 ft | 3 kts | 155° |
| 2026-05-04 19:49 | 54.61460 | -5.87187 | 17 ft | 1 kts | 155° |